Terminal Aerodrome Forecast
Issued by NWS

Home | Current Version | Previous Version | Text Only | Print | Product List | Glossary On
Versions: 1 2 3 4 5 6 7 8 9 10 11 12 13 14 15 16 17 18 19
000
FTUS46 KMTR 300500
TAFSNS
TAF
KSNS 300540Z 3006/3106 28009KT P6SM BKN008
      TEMPO 3006/3007 SCT008
     FM300700 28006KT P6SM OVC005
     FM301800 29009KT P6SM FEW012 BKN200
     FM310300 24004KT P6SM BKN010=

USA.gov is the U.S. government's official web portal to all federal, state and local government web resources and services.